C6551 KOPF-KOPF
Flight info
| Callsign | C6551 |
|---|---|
| Flight time | 1h 15m |
| Altitude | 1500 |
| Route | VFR |
| Aircraft | AS65/L-SDE2E3FGHIJ1RWXY/S |
Departure
| Time | 2026-04-18 21:46 |
|---|---|
| Airport | Miami-Opa Locka Executive Airport (KOPF) |
Arrival
| Time | 2026-04-18 23:02 |
|---|---|
| Airport | Miami-Opa Locka Executive Airport (KOPF) |
| Time | Latitude | Longitude | Altitude | Speed | Heading |
|---|---|---|---|---|---|
| 2026-04-18 21:39 | 25.90779 | -80.27569 | 12 ft | 0 kts | 300° |
| 2026-04-18 21:43 | 25.90783 | -80.27574 | 64 ft | 4 kts | 311° |
| 2026-04-18 21:43 | 25.90770 | -80.27484 | 276 ft | 45 kts | 119° |
| 2026-04-18 21:43 | 25.90541 | -80.26988 | 488 ft | 85 kts | 104° |
| 2026-04-18 21:43 | 25.90600 | -80.26242 | 402 ft | 117 kts | 81° |
| 2026-04-18 21:44 | 25.90867 | -80.25274 | 408 ft | 142 kts | 78° |
| 2026-04-18 21:44 | 25.91157 | -80.24172 | 409 ft | 152 kts | 80° |
| 2026-04-18 21:44 | 25.91383 | -80.23064 | 402 ft | 149 kts | 82° |
| 2026-04-18 21:44 | 25.91558 | -80.21880 | 428 ft | 151 kts | 94° |
| 2026-04-18 21:45 | 25.91456 | -80.20763 | 403 ft | 147 kts | 103° |
| 2026-04-18 21:45 | 25.91320 | -80.20012 | 421 ft | 148 kts | 108° |
| 2026-04-18 21:45 | 25.91078 | -80.18934 | 421 ft | 142 kts | 111° |
| 2026-04-18 21:45 | 25.90824 | -80.17832 | 344 ft | 155 kts | 106° |
| 2026-04-18 21:46 | 25.90566 | -80.16629 | 284 ft | 161 kts | 108° |
| 2026-04-18 21:46 | 25.90312 | -80.15417 | 447 ft | 163 kts | 107° |
| 2026-04-18 21:46 | 25.90053 | -80.14189 | 564 ft | 165 kts | 105° |
| 2026-04-18 21:46 | 25.89787 | -80.12937 | 684 ft | 167 kts | 105° |
| 2026-04-18 21:47 | 25.89377 | -80.11764 | 861 ft | 161 kts | 124° |
| 2026-04-18 21:47 | 25.88551 | -80.10941 | 916 ft | 165 kts | 150° |
| 2026-04-18 21:47 | 25.87429 | -80.10598 | 964 ft | 168 kts | 174° |
| 2026-04-18 21:47 | 25.86265 | -80.10587 | 962 ft | 170 kts | 183° |
| 2026-04-18 21:48 | 25.85099 | -80.10773 | 972 ft | 169 kts | 190° |
| 2026-04-18 21:48 | 25.83941 | -80.11069 | 975 ft | 172 kts | 193° |
| 2026-04-18 21:48 | 25.82781 | -80.11401 | 979 ft | 172 kts | 194° |
| 2026-04-18 21:48 | 25.81619 | -80.11743 | 984 ft | 172 kts | 193° |
| 2026-04-18 21:49 | 25.80453 | -80.12083 | 986 ft | 173 kts | 193° |
| 2026-04-18 21:49 | 25.79294 | -80.12419 | 983 ft | 172 kts | 193° |
| 2026-04-18 21:49 | 25.78141 | -80.12746 | 984 ft | 172 kts | 193° |
| 2026-04-18 21:49 | 25.76982 | -80.13074 | 985 ft | 171 kts | 192° |
| 2026-04-18 21:50 | 25.75833 | -80.13398 | 969 ft | 172 kts | 194° |
| 2026-04-18 21:50 | 25.74676 | -80.13688 | 968 ft | 171 kts | 192° |
| 2026-04-18 21:50 | 25.73512 | -80.13963 | 981 ft | 170 kts | 191° |
| 2026-04-18 21:50 | 25.72354 | -80.14240 | 978 ft | 171 kts | 192° |
| 2026-04-18 21:51 | 25.71197 | -80.14521 | 980 ft | 169 kts | 192° |
| 2026-04-18 21:51 | 25.70037 | -80.14802 | 980 ft | 171 kts | 192° |
| 2026-04-18 21:51 | 25.68885 | -80.15174 | 982 ft | 174 kts | 202° |
| 2026-04-18 21:51 | 25.67931 | -80.16007 | 980 ft | 177 kts | 230° |
| 2026-04-18 21:52 | 25.67393 | -80.17231 | 978 ft | 178 kts | 256° |
| 2026-04-18 21:52 | 25.67362 | -80.18616 | 976 ft | 184 kts | 278° |
| 2026-04-18 21:52 | 25.67764 | -80.19954 | 999 ft | 176 kts | 306° |
| 2026-04-18 21:52 | 25.68529 | -80.20801 | 1010 ft | 139 kts | 339° |
| 2026-04-18 21:53 | 25.69358 | -80.20985 | 986 ft | 113 kts | 16° |
| 2026-04-18 21:53 | 25.70023 | -80.20577 | 988 ft | 106 kts | 57° |
| 2026-04-18 21:53 | 25.70247 | -80.19833 | 988 ft | 101 kts | 95° |
| 2026-04-18 21:53 | 25.69963 | -80.19125 | 986 ft | 102 kts | 126° |
| 2026-04-18 21:54 | 25.69497 | -80.18591 | 995 ft | 90 kts | 135° |
| 2026-04-18 21:54 | 25.69045 | -80.18172 | 979 ft | 84 kts | 139° |
| 2026-04-18 21:54 | 25.68617 | -80.17711 | 978 ft | 87 kts | 129° |
| 2026-04-18 21:54 | 25.68300 | -80.17151 | 980 ft | 87 kts | 117° |
| 2026-04-18 21:55 | 25.68099 | -80.16523 | 982 ft | 86 kts | 107° |
| 2026-04-18 21:55 | 25.67968 | -80.15886 | 981 ft | 84 kts | 108° |
| 2026-04-18 21:55 | 25.67585 | -80.15390 | 979 ft | 90 kts | 149° |
| 2026-04-18 21:55 | 25.66957 | -80.15352 | 977 ft | 96 kts | 197° |
| 2026-04-18 21:56 | 25.66462 | -80.15871 | 976 ft | 104 kts | 244° |
| 2026-04-18 21:56 | 25.66391 | -80.16651 | 984 ft | 103 kts | 279° |
| 2026-04-18 21:56 | 25.66530 | -80.17487 | 976 ft | 117 kts | 285° |
| 2026-04-18 21:56 | 25.66677 | -80.18357 | 980 ft | 112 kts | 282° |
| 2026-04-18 21:57 | 25.66785 | -80.19201 | 978 ft | 111 kts | 276° |
| 2026-04-18 21:57 | 25.66865 | -80.20059 | 980 ft | 114 kts | 274° |
| 2026-04-18 21:57 | 25.66929 | -80.20944 | 982 ft | 113 kts | 274° |
| 2026-04-18 21:57 | 25.66978 | -80.21790 | 977 ft | 110 kts | 272° |
| 2026-04-18 21:58 | 25.67020 | -80.22633 | 981 ft | 110 kts | 270° |
| 2026-04-18 21:58 | 25.67061 | -80.23464 | 976 ft | 109 kts | 274° |
| 2026-04-18 21:58 | 25.66912 | -80.24295 | 987 ft | 108 kts | 238° |
| 2026-04-18 21:58 | 25.66403 | -80.24811 | 972 ft | 98 kts | 197° |
| 2026-04-18 21:59 | 25.65748 | -80.24829 | 982 ft | 94 kts | 158° |
| 2026-04-18 21:59 | 25.65259 | -80.24401 | 987 ft | 88 kts | 123° |
| 2026-04-18 21:59 | 25.65121 | -80.23743 | 984 ft | 88 kts | 92° |
| 2026-04-18 21:59 | 25.65219 | -80.23095 | 976 ft | 89 kts | 83° |
| 2026-04-18 22:00 | 25.65342 | -80.22413 | 984 ft | 87 kts | 88° |
| 2026-04-18 22:00 | 25.65413 | -80.21758 | 972 ft | 91 kts | 86° |
| 2026-04-18 22:00 | 25.65444 | -80.21048 | 989 ft | 89 kts | 93° |
| 2026-04-18 22:00 | 25.65437 | -80.20356 | 984 ft | 88 kts | 96° |
| 2026-04-18 22:01 | 25.65415 | -80.19662 | 980 ft | 92 kts | 100° |
| 2026-04-18 22:01 | 25.65388 | -80.18982 | 979 ft | 88 kts | 98° |
| 2026-04-18 22:01 | 25.65362 | -80.18302 | 977 ft | 90 kts | 96° |
| 2026-04-18 22:01 | 25.65336 | -80.17605 | 991 ft | 87 kts | 98° |
| 2026-04-18 22:02 | 25.65304 | -80.16944 | 977 ft | 88 kts | 97° |
| 2026-04-18 22:02 | 25.65270 | -80.16233 | 977 ft | 93 kts | 96° |
| 2026-04-18 22:02 | 25.65010 | -80.15606 | 976 ft | 93 kts | 134° |
| 2026-04-18 22:02 | 25.64401 | -80.15370 | 981 ft | 98 kts | 181° |
| 2026-04-18 22:03 | 25.63789 | -80.15716 | 977 ft | 105 kts | 226° |
| 2026-04-18 22:03 | 25.63559 | -80.16476 | 982 ft | 108 kts | 269° |
| 2026-04-18 22:03 | 25.63692 | -80.17286 | 981 ft | 108 kts | 287° |
| 2026-04-18 22:03 | 25.63891 | -80.18132 | 980 ft | 116 kts | 284° |
| 2026-04-18 22:04 | 25.64050 | -80.18985 | 985 ft | 112 kts | 279° |
| 2026-04-18 22:04 | 25.64162 | -80.19816 | 983 ft | 106 kts | 276° |
| 2026-04-18 22:04 | 25.64233 | -80.20618 | 975 ft | 105 kts | 274° |
| 2026-04-18 22:04 | 25.64281 | -80.21456 | 985 ft | 110 kts | 273° |
| 2026-04-18 22:05 | 25.64325 | -80.22306 | 980 ft | 113 kts | 273° |
| 2026-04-18 22:05 | 25.64370 | -80.23170 | 989 ft | 110 kts | 275° |
| 2026-04-18 22:05 | 25.64380 | -80.24028 | 986 ft | 110 kts | 259° |
| 2026-04-18 22:05 | 25.64030 | -80.24770 | 980 ft | 109 kts | 221° |
| 2026-04-18 22:06 | 25.63402 | -80.25112 | 978 ft | 96 kts | 180° |
| 2026-04-18 22:06 | 25.62777 | -80.24945 | 983 ft | 91 kts | 143° |
| 2026-04-18 22:06 | 25.62411 | -80.24416 | 980 ft | 89 kts | 110° |
| 2026-04-18 22:06 | 25.62401 | -80.23742 | 986 ft | 86 kts | 85° |
| 2026-04-18 22:07 | 25.62548 | -80.23096 | 975 ft | 90 kts | 83° |
| 2026-04-18 22:07 | 25.62680 | -80.22408 | 988 ft | 90 kts | 88° |
| 2026-04-18 22:07 | 25.62743 | -80.21745 | 983 ft | 87 kts | 90° |
| 2026-04-18 22:07 | 25.62762 | -80.21077 | 982 ft | 88 kts | 93° |
| 2026-04-18 22:08 | 25.62754 | -80.20392 | 981 ft | 86 kts | 94° |
| 2026-04-18 22:08 | 25.62733 | -80.19732 | 978 ft | 89 kts | 96° |
| 2026-04-18 22:08 | 25.62707 | -80.19065 | 978 ft | 85 kts | 97° |
| 2026-04-18 22:08 | 25.62680 | -80.18391 | 977 ft | 90 kts | 97° |
| 2026-04-18 22:09 | 25.62654 | -80.17699 | 975 ft | 91 kts | 98° |
| 2026-04-18 22:09 | 25.62629 | -80.16979 | 981 ft | 97 kts | 98° |
| 2026-04-18 22:09 | 25.62584 | -80.16246 | 987 ft | 91 kts | 103° |
| 2026-04-18 22:09 | 25.62231 | -80.15686 | 979 ft | 93 kts | 145° |
| 2026-04-18 22:10 | 25.61595 | -80.15587 | 978 ft | 97 kts | 193° |
| 2026-04-18 22:10 | 25.61055 | -80.16061 | 978 ft | 105 kts | 239° |
| 2026-04-18 22:10 | 25.60942 | -80.16859 | 984 ft | 109 kts | 278° |
| 2026-04-18 22:10 | 25.61102 | -80.17678 | 979 ft | 110 kts | 288° |
| 2026-04-18 22:11 | 25.61288 | -80.18519 | 986 ft | 114 kts | 283° |
| 2026-04-18 22:11 | 25.61432 | -80.19389 | 983 ft | 115 kts | 282° |
| 2026-04-18 22:11 | 25.61530 | -80.20242 | 985 ft | 108 kts | 278° |
| 2026-04-18 22:11 | 25.61598 | -80.21052 | 981 ft | 103 kts | 274° |
| 2026-04-18 22:12 | 25.61683 | -80.22590 | 976 ft | 102 kts | 274° |
| 2026-04-18 22:12 | 25.61718 | -80.23379 | 981 ft | 103 kts | 273° |
| 2026-04-18 22:12 | 25.61734 | -80.24154 | 976 ft | 99 kts | 263° |
| 2026-04-18 22:13 | 25.61416 | -80.24803 | 975 ft | 97 kts | 218° |
| 2026-04-18 22:13 | 25.60831 | -80.25069 | 973 ft | 89 kts | 180° |
| 2026-04-18 22:13 | 25.60259 | -80.24878 | 976 ft | 84 kts | 141° |
| 2026-04-18 22:13 | 25.59936 | -80.24366 | 975 ft | 81 kts | 106° |
| 2026-04-18 22:14 | 25.59916 | -80.23765 | 975 ft | 76 kts | 86° |
| 2026-04-18 22:14 | 25.60001 | -80.23182 | 971 ft | 79 kts | 88° |
| 2026-04-18 22:14 | 25.60074 | -80.22567 | 977 ft | 81 kts | 90° |
| 2026-04-18 22:14 | 25.60106 | -80.21964 | 972 ft | 78 kts | 90° |
| 2026-04-18 22:15 | 25.60112 | -80.21332 | 974 ft | 84 kts | 92° |
| 2026-04-18 22:15 | 25.60099 | -80.20706 | 982 ft | 80 kts | 98° |
| 2026-04-18 22:15 | 25.60073 | -80.20100 | 976 ft | 78 kts | 96° |
| 2026-04-18 22:15 | 25.60044 | -80.19514 | 980 ft | 72 kts | 96° |
| 2026-04-18 22:16 | 25.60018 | -80.18962 | 967 ft | 76 kts | 98° |
| 2026-04-18 22:16 | 25.59994 | -80.18379 | 973 ft | 77 kts | 97° |
| 2026-04-18 22:16 | 25.59968 | -80.17802 | 982 ft | 72 kts | 98° |
| 2026-04-18 22:16 | 25.59939 | -80.17246 | 975 ft | 73 kts | 95° |
| 2026-04-18 22:17 | 25.59909 | -80.16667 | 977 ft | 76 kts | 94° |
| 2026-04-18 22:17 | 25.59819 | -80.16105 | 976 ft | 76 kts | 118° |
| 2026-04-18 22:17 | 25.59397 | -80.15744 | 971 ft | 82 kts | 160° |
| 2026-04-18 22:17 | 25.58814 | -80.15817 | 971 ft | 91 kts | 205° |
| 2026-04-18 22:18 | 25.58447 | -80.16371 | 972 ft | 92 kts | 257° |
| 2026-04-18 22:18 | 25.58457 | -80.17083 | 974 ft | 96 kts | 281° |
| 2026-04-18 22:18 | 25.58587 | -80.17822 | 981 ft | 96 kts | 284° |
| 2026-04-18 22:18 | 25.58713 | -80.18552 | 975 ft | 98 kts | 279° |
| 2026-04-18 22:19 | 25.58805 | -80.19291 | 974 ft | 95 kts | 279° |
| 2026-04-18 22:19 | 25.58866 | -80.20013 | 971 ft | 95 kts | 277° |
| 2026-04-18 22:19 | 25.58912 | -80.20770 | 978 ft | 100 kts | 272° |
| 2026-04-18 22:19 | 25.58953 | -80.21531 | 973 ft | 99 kts | 271° |
| 2026-04-18 22:20 | 25.58989 | -80.22288 | 972 ft | 99 kts | 276° |
| 2026-04-18 22:20 | 25.59025 | -80.23067 | 978 ft | 101 kts | 275° |
| 2026-04-18 22:20 | 25.59063 | -80.23845 | 975 ft | 101 kts | 273° |
| 2026-04-18 22:20 | 25.58986 | -80.24587 | 971 ft | 95 kts | 242° |
| 2026-04-18 22:21 | 25.58555 | -80.25087 | 975 ft | 86 kts | 200° |
| 2026-04-18 22:21 | 25.58002 | -80.25176 | 973 ft | 77 kts | 164° |
| 2026-04-18 22:21 | 25.57567 | -80.24905 | 975 ft | 70 kts | 134° |
| 2026-04-18 22:21 | 25.57375 | -80.24418 | 972 ft | 72 kts | 104° |
| 2026-04-18 22:22 | 25.57382 | -80.23851 | 971 ft | 76 kts | 93° |
| 2026-04-18 22:22 | 25.57425 | -80.23266 | 976 ft | 76 kts | 91° |
| 2026-04-18 22:22 | 25.57452 | -80.22676 | 977 ft | 76 kts | 95° |
| 2026-04-18 22:22 | 25.57455 | -80.22107 | 968 ft | 76 kts | 94° |
| 2026-04-18 22:23 | 25.57446 | -80.21520 | 972 ft | 76 kts | 96° |
| 2026-04-18 22:23 | 25.57429 | -80.20931 | 975 ft | 75 kts | 97° |
| 2026-04-18 22:23 | 25.57405 | -80.20373 | 977 ft | 69 kts | 96° |
| 2026-04-18 22:23 | 25.57378 | -80.19830 | 972 ft | 73 kts | 95° |
| 2026-04-18 22:24 | 25.57352 | -80.19276 | 971 ft | 73 kts | 95° |
| 2026-04-18 22:24 | 25.57328 | -80.18700 | 973 ft | 76 kts | 97° |
| 2026-04-18 22:24 | 25.57303 | -80.18105 | 974 ft | 78 kts | 97° |
| 2026-04-18 22:24 | 25.57276 | -80.17527 | 977 ft | 72 kts | 96° |
| 2026-04-18 22:25 | 25.57249 | -80.16959 | 969 ft | 77 kts | 97° |
| 2026-04-18 22:25 | 25.57201 | -80.16374 | 969 ft | 76 kts | 106° |
| 2026-04-18 22:25 | 25.56851 | -80.15928 | 970 ft | 82 kts | 150° |
| 2026-04-18 22:25 | 25.56278 | -80.15909 | 971 ft | 88 kts | 197° |
| 2026-04-18 22:26 | 25.55848 | -80.16396 | 971 ft | 93 kts | 247° |
| 2026-04-18 22:26 | 25.55800 | -80.17119 | 974 ft | 99 kts | 277° |
| 2026-04-18 22:26 | 25.55910 | -80.17879 | 978 ft | 99 kts | 284° |
| 2026-04-18 22:26 | 25.56032 | -80.18635 | 976 ft | 98 kts | 280° |
| 2026-04-18 22:27 | 25.56123 | -80.19365 | 969 ft | 97 kts | 276° |
| 2026-04-18 22:27 | 25.56187 | -80.20110 | 973 ft | 97 kts | 274° |
| 2026-04-18 22:27 | 25.56237 | -80.20869 | 975 ft | 100 kts | 273° |
| 2026-04-18 22:27 | 25.56281 | -80.21605 | 974 ft | 93 kts | 275° |
| 2026-04-18 22:28 | 25.56317 | -80.22317 | 969 ft | 94 kts | 271° |
| 2026-04-18 22:28 | 25.56348 | -80.23053 | 974 ft | 95 kts | 269° |
| 2026-04-18 22:28 | 25.56378 | -80.23763 | 969 ft | 90 kts | 274° |
| 2026-04-18 22:28 | 25.56382 | -80.24474 | 967 ft | 97 kts | 259° |
| 2026-04-18 22:29 | 25.56074 | -80.25088 | 976 ft | 85 kts | 219° |
| 2026-04-18 22:29 | 25.55545 | -80.25323 | 972 ft | 84 kts | 178° |
| 2026-04-18 22:29 | 25.55018 | -80.25153 | 972 ft | 76 kts | 144° |
| 2026-04-18 22:29 | 25.54722 | -80.24682 | 969 ft | 75 kts | 110° |
| 2026-04-18 22:30 | 25.54694 | -80.24115 | 973 ft | 75 kts | 92° |
| 2026-04-18 22:30 | 25.54736 | -80.23537 | 973 ft | 76 kts | 90° |
| 2026-04-18 22:30 | 25.54773 | -80.22939 | 971 ft | 79 kts | 95° |
| 2026-04-18 22:30 | 25.54788 | -80.22323 | 973 ft | 80 kts | 97° |
| 2026-04-18 22:31 | 25.54783 | -80.21749 | 978 ft | 71 kts | 98° |
| 2026-04-18 22:31 | 25.54765 | -80.21190 | 970 ft | 76 kts | 96° |
| 2026-04-18 22:31 | 25.54745 | -80.20583 | 967 ft | 81 kts | 96° |
| 2026-04-18 22:31 | 25.54723 | -80.19991 | 979 ft | 73 kts | 100° |
| 2026-04-18 22:32 | 25.54704 | -80.19609 | 973 ft | 76 kts | 97° |
| 2026-04-18 22:32 | 25.54674 | -80.19030 | 973 ft | 76 kts | 97° |
| 2026-04-18 22:32 | 25.54644 | -80.18441 | 978 ft | 75 kts | 98° |
| 2026-04-18 22:32 | 25.54604 | -80.17680 | 976 ft | 73 kts | 98° |
| 2026-04-18 22:33 | 25.54584 | -80.17309 | 972 ft | 72 kts | 98° |
| 2026-04-18 22:33 | 25.54550 | -80.16554 | 967 ft | 77 kts | 96° |
| 2026-04-18 22:33 | 25.54525 | -80.15952 | 973 ft | 77 kts | 95° |
| 2026-04-18 22:33 | 25.54498 | -80.15369 | 973 ft | 76 kts | 93° |
| 2026-04-18 22:34 | 25.54558 | -80.14975 | 973 ft | 78 kts | 72° |
| 2026-04-18 22:34 | 25.54914 | -80.14524 | 970 ft | 83 kts | 38° |
| 2026-04-18 22:34 | 25.55488 | -80.14400 | 974 ft | 88 kts | 1° |
| 2026-04-18 22:34 | 25.56060 | -80.14655 | 974 ft | 89 kts | 339° |
| 2026-04-18 22:35 | 25.56599 | -80.15004 | 975 ft | 91 kts | 335° |
| 2026-04-18 22:35 | 25.57127 | -80.15373 | 975 ft | 91 kts | 334° |
| 2026-04-18 22:35 | 25.57653 | -80.15753 | 971 ft | 90 kts | 334° |
| 2026-04-18 22:35 | 25.58171 | -80.16133 | 971 ft | 90 kts | 332° |
| 2026-04-18 22:36 | 25.58700 | -80.16522 | 971 ft | 92 kts | 332° |
| 2026-04-18 22:36 | 25.59237 | -80.16913 | 978 ft | 95 kts | 337° |
| 2026-04-18 22:36 | 25.59793 | -80.17313 | 979 ft | 95 kts | 336° |
| 2026-04-18 22:36 | 25.60336 | -80.17704 | 978 ft | 92 kts | 338° |
| 2026-04-18 22:37 | 25.60875 | -80.18094 | 979 ft | 95 kts | 334° |
| 2026-04-18 22:37 | 25.61432 | -80.18497 | 981 ft | 93 kts | 335° |
| 2026-04-18 22:37 | 25.61968 | -80.18888 | 977 ft | 93 kts | 336° |
| 2026-04-18 22:37 | 25.62520 | -80.19292 | 975 ft | 96 kts | 333° |
| 2026-04-18 22:38 | 25.63074 | -80.19700 | 978 ft | 94 kts | 333° |
| 2026-04-18 22:38 | 25.63664 | -80.19998 | 973 ft | 92 kts | 359° |
| 2026-04-18 22:38 | 25.64300 | -80.19960 | 983 ft | 91 kts | 19° |
| 2026-04-18 22:38 | 25.64928 | -80.20019 | 975 ft | 95 kts | 347° |
| 2026-04-18 22:39 | 25.65408 | -80.20508 | 978 ft | 95 kts | 297° |
| 2026-04-18 22:39 | 25.65555 | -80.21190 | 979 ft | 92 kts | 265° |
| 2026-04-18 22:39 | 25.65279 | -80.21824 | 985 ft | 91 kts | 221° |
| 2026-04-18 22:39 | 25.64784 | -80.22112 | 975 ft | 76 kts | 192° |
| 2026-04-18 22:40 | 25.64255 | -80.22185 | 981 ft | 77 kts | 181° |
| 2026-04-18 22:40 | 25.63720 | -80.22235 | 980 ft | 78 kts | 181° |
| 2026-04-18 22:40 | 25.63176 | -80.22311 | 983 ft | 79 kts | 185° |
| 2026-04-18 22:40 | 25.62639 | -80.22291 | 979 ft | 78 kts | 157° |
| 2026-04-18 22:41 | 25.62232 | -80.21945 | 978 ft | 71 kts | 122° |
| 2026-04-18 22:41 | 25.62060 | -80.21451 | 983 ft | 69 kts | 107° |
| 2026-04-18 22:41 | 25.61933 | -80.20944 | 982 ft | 69 kts | 106° |
| 2026-04-18 22:41 | 25.61816 | -80.20427 | 978 ft | 69 kts | 103° |
| 2026-04-18 22:42 | 25.61710 | -80.19919 | 981 ft | 65 kts | 105° |
| 2026-04-18 22:42 | 25.61608 | -80.19413 | 977 ft | 71 kts | 104° |
| 2026-04-18 22:42 | 25.61687 | -80.18892 | 977 ft | 70 kts | 71° |
| 2026-04-18 22:42 | 25.62055 | -80.18495 | 973 ft | 79 kts | 37° |
| 2026-04-18 22:43 | 25.62592 | -80.18298 | 971 ft | 83 kts | 18° |
| 2026-04-18 22:43 | 25.63176 | -80.18187 | 980 ft | 87 kts | 15° |
| 2026-04-18 22:43 | 25.63751 | -80.18084 | 974 ft | 81 kts | 22° |
| 2026-04-18 22:43 | 25.64329 | -80.17968 | 978 ft | 89 kts | 22° |
| 2026-04-18 22:44 | 25.64911 | -80.17841 | 976 ft | 82 kts | 22° |
| 2026-04-18 22:44 | 25.65472 | -80.17708 | 980 ft | 82 kts | 23° |
| 2026-04-18 22:44 | 25.66054 | -80.17696 | 975 ft | 88 kts | 358° |
| 2026-04-18 22:44 | 25.66557 | -80.18097 | 981 ft | 94 kts | 313° |
| 2026-04-18 22:45 | 25.66815 | -80.18775 | 979 ft | 98 kts | 292° |
| 2026-04-18 22:45 | 25.66977 | -80.19493 | 975 ft | 96 kts | 286° |
| 2026-04-18 22:45 | 25.67109 | -80.20207 | 978 ft | 94 kts | 281° |
| 2026-04-18 22:45 | 25.67240 | -80.20923 | 982 ft | 95 kts | 282° |
| 2026-04-18 22:46 | 25.67380 | -80.21627 | 981 ft | 94 kts | 283° |
| 2026-04-18 22:46 | 25.67465 | -80.22364 | 981 ft | 97 kts | 259° |
| 2026-04-18 22:46 | 25.67192 | -80.22976 | 976 ft | 86 kts | 218° |
| 2026-04-18 22:46 | 25.66712 | -80.23257 | 983 ft | 72 kts | 192° |
| 2026-04-18 22:47 | 25.66203 | -80.23403 | 979 ft | 79 kts | 184° |
| 2026-04-18 22:47 | 25.65684 | -80.23529 | 982 ft | 74 kts | 188° |
| 2026-04-18 22:47 | 25.65172 | -80.23647 | 976 ft | 76 kts | 183° |
| 2026-04-18 22:47 | 25.64651 | -80.23770 | 981 ft | 77 kts | 182° |
| 2026-04-18 22:48 | 25.64124 | -80.23900 | 980 ft | 79 kts | 183° |
| 2026-04-18 22:48 | 25.63592 | -80.24037 | 978 ft | 80 kts | 186° |
| 2026-04-18 22:48 | 25.63045 | -80.24177 | 984 ft | 79 kts | 187° |
| 2026-04-18 22:48 | 25.62523 | -80.24314 | 975 ft | 78 kts | 187° |
| 2026-04-18 22:49 | 25.61977 | -80.24446 | 984 ft | 81 kts | 186° |
| 2026-04-18 22:49 | 25.61442 | -80.24505 | 975 ft | 76 kts | 165° |
| 2026-04-18 22:49 | 25.61000 | -80.24228 | 970 ft | 73 kts | 130° |
| 2026-04-18 22:49 | 25.60786 | -80.23743 | 974 ft | 68 kts | 110° |
| 2026-04-18 22:50 | 25.60667 | -80.23236 | 971 ft | 69 kts | 106° |
| 2026-04-18 22:50 | 25.60564 | -80.22700 | 973 ft | 72 kts | 103° |
| 2026-04-18 22:50 | 25.60463 | -80.22170 | 977 ft | 69 kts | 107° |
| 2026-04-18 22:50 | 25.60377 | -80.21610 | 958 ft | 86 kts | 102° |
| 2026-04-18 22:51 | 25.60248 | -80.20837 | 952 ft | 116 kts | 102° |
| 2026-04-18 22:51 | 25.60090 | -80.19874 | 954 ft | 136 kts | 103° |
| 2026-04-18 22:51 | 25.59926 | -80.18782 | 961 ft | 148 kts | 102° |
| 2026-04-18 22:51 | 25.59751 | -80.17637 | 962 ft | 154 kts | 102° |
| 2026-04-18 22:52 | 25.59550 | -80.16468 | 964 ft | 159 kts | 103° |
| 2026-04-18 22:52 | 25.59345 | -80.15258 | 969 ft | 161 kts | 100° |
| 2026-04-18 22:52 | 25.59455 | -80.14014 | 970 ft | 166 kts | 76° |
| 2026-04-18 22:52 | 25.60047 | -80.12914 | 974 ft | 170 kts | 52° |
| 2026-04-18 22:53 | 25.61008 | -80.12176 | 967 ft | 172 kts | 28° |
| 2026-04-18 22:53 | 25.62150 | -80.11814 | 973 ft | 171 kts | 18° |
| 2026-04-18 22:53 | 25.63315 | -80.11591 | 959 ft | 171 kts | 9° |
| 2026-04-18 22:53 | 25.64508 | -80.11578 | 878 ft | 171 kts | 4° |
| 2026-04-18 22:54 | 25.65706 | -80.11632 | 847 ft | 173 kts | 2° |
| 2026-04-18 22:54 | 25.66899 | -80.11694 | 818 ft | 173 kts | 2° |
| 2026-04-18 22:54 | 25.68104 | -80.11761 | 818 ft | 172 kts | 2° |
| 2026-04-18 22:54 | 25.69310 | -80.11814 | 814 ft | 174 kts | 3° |
| 2026-04-18 22:55 | 25.70525 | -80.11864 | 813 ft | 175 kts | 3° |
| 2026-04-18 22:55 | 25.71730 | -80.11910 | 808 ft | 174 kts | 3° |
| 2026-04-18 22:55 | 25.72946 | -80.11961 | 812 ft | 174 kts | 2° |
| 2026-04-18 22:55 | 25.74156 | -80.12016 | 804 ft | 176 kts | 2° |
| 2026-04-18 22:56 | 25.75367 | -80.12066 | 806 ft | 174 kts | 2° |
| 2026-04-18 22:56 | 25.76580 | -80.12124 | 807 ft | 174 kts | 4° |
| 2026-04-18 22:56 | 25.77775 | -80.12193 | 813 ft | 173 kts | 2° |
| 2026-04-18 22:56 | 25.78969 | -80.12258 | 807 ft | 173 kts | 3° |
| 2026-04-18 22:57 | 25.80170 | -80.12328 | 812 ft | 172 kts | 2° |
| 2026-04-18 22:57 | 25.81366 | -80.12393 | 808 ft | 173 kts | 3° |
| 2026-04-18 22:57 | 25.82570 | -80.12461 | 810 ft | 172 kts | 2° |
| 2026-04-18 22:57 | 25.83771 | -80.12524 | 809 ft | 173 kts | 1° |
| 2026-04-18 22:58 | 25.84971 | -80.12578 | 810 ft | 173 kts | 1° |
| 2026-04-18 22:58 | 25.86184 | -80.12628 | 810 ft | 177 kts | 2° |
| 2026-04-18 22:58 | 25.87402 | -80.12686 | 818 ft | 173 kts | 2° |
| 2026-04-18 22:58 | 25.88609 | -80.12871 | 815 ft | 179 kts | 346° |
| 2026-04-18 22:59 | 25.89671 | -80.13538 | 805 ft | 181 kts | 323° |
| 2026-04-18 22:59 | 25.90437 | -80.14655 | 822 ft | 183 kts | 299° |
| 2026-04-18 22:59 | 25.90765 | -80.16000 | 833 ft | 175 kts | 276° |
| 2026-04-18 22:59 | 25.90756 | -80.17245 | 836 ft | 152 kts | 266° |
| 2026-04-18 23:00 | 25.90701 | -80.18455 | 801 ft | 164 kts | 266° |
| 2026-04-18 23:00 | 25.90623 | -80.19684 | 833 ft | 154 kts | 266° |
| 2026-04-18 23:00 | 25.90560 | -80.20773 | 836 ft | 131 kts | 266° |
| 2026-04-18 23:00 | 25.90541 | -80.21797 | 814 ft | 137 kts | 270° |
| 2026-04-18 23:01 | 25.90582 | -80.22838 | 825 ft | 131 kts | 272° |
| 2026-04-18 23:01 | 25.90620 | -80.23866 | 813 ft | 138 kts | 272° |
| 2026-04-18 23:01 | 25.90614 | -80.24943 | 911 ft | 134 kts | 270° |
| 2026-04-18 23:01 | 25.90637 | -80.25946 | 413 ft | 132 kts | 273° |
| 2026-04-18 23:02 | 25.90634 | -80.26966 | 194 ft | 114 kts | 278° |
| 2026-04-18 23:02 | 25.90695 | -80.27434 | 188 ft | 33 kts | 264° |
| 2026-04-18 23:02 | 25.90724 | -80.27601 | 81 ft | 5 kts | 90° |
| 2026-04-18 23:02 | 25.90710 | -80.27585 | 32 ft | 4 kts | 121° |
| 2026-04-18 23:03 | 25.90703 | -80.27571 | 17 ft | 1 kts | 120° |
| 2026-04-18 23:03 | 25.90700 | -80.27564 | 12 ft | 0 kts | 120° |